Time,TemperatureF,DewpointF,PressureIn,WindDirection,WindDirectionDegrees,WindSpeedMPH,WindSpeedGustMPH,Humidity,HourlyPrecipIn,Conditions,Clouds,dailyrainin,SoftwareType,DateUTC
2013-04-10 00:00:00,65.0,40.1,29.69,NNE,26,0.0,0.1,40,0.00,CLR,FEW,0.00,WeatherDisplay:10.37,2013-04-10 04:00:00,
2013-04-10 00:05:00,65.4,39.8,29.69,NNE,26,2.3,2.3,39,0.00,CLR,FEW,0.00,WeatherDisplay:10.37,2013-04-10 04:05:00,
2013-04-10 00:10:00,65.5,40.5,29.68,NNE,26,2.3,2.3,40,0.00,CLR,FEW,0.00,WeatherDisplay:10.37,2013-04-10 04:10:00,
2013-04-10 00:15:00,65.4,40.4,29.68,NNE,26,1.2,1.2,40,0.00,CLR,FEW,0.00,WeatherDisplay:10.37,2013-04-10 04:15:00,
2013-04-10 00:20:00,65.0,40.1,29.68,NNE,26,3.5,3.5,40,0.00,CLR,FEW,0.00,WeatherDisplay:10.37,2013-04-10 04:20:00,
2013-04-10 00:25:00,64.8,39.9,29.68,NNE,26,3.5,3.5,40,0.00,CLR,FEW,0.00,WeatherDisplay:10.37,2013-04-10 04:25:00,
2013-04-10 00:30:00,65.2,40.3,29.67,NNE,26,2.3,2.3,40,0.00,CLR,FEW,0.00,WeatherDisplay:10.37,2013-04-10 04:30:00,
2013-04-10 00:35:00,65.3,40.3,29.66,NNE,26,0.0,0.0,40,0.00,CLR,FEW,0.00,WeatherDisplay:10.37,2013-04-10 04:35:00,
2013-04-10 00:40:00,65.2,40.3,29.66,NNE,26,0.0,0.3,40,0.00,CLR,FEW,0.00,WeatherDisplay:10.37,2013-04-10 04:40:00,
2013-04-10 00:45:00,65.1,40.2,29.66,NNE,26,0.0,0.0,40,0.00,CLR,FEW,0.00,WeatherDisplay:10.37,2013-04-10 04:45:00,
2013-04-10 00:50:00,64.9,40.6,29.66,NNE,26,0.0,0.0,41,0.00,CLR,FEW,0.00,WeatherDisplay:10.37,2013-04-10 04:50:00,
2013-04-10 00:55:00,64.8,40.5,29.66,NNE,26,0.0,0.0,41,0.00,CLR,FEW,0.00,WeatherDisplay:10.37,2013-04-10 04:55:00,
2013-04-10 01:00:00,64.8,40.5,29.65,NNE,26,3.5,3.5,41,0.00,CLR,FEW,0.00,WeatherDisplay:10.37,2013-04-10 05:00:00,
2013-04-10 01:05:00,64.4,41.4,29.65,NNE,24,3.5,3.5,43,0.00,CLR,FEW,0.00,WeatherDisplay:10.37,2013-04-10 05:05:00,
2013-04-10 01:10:00,63.9,41.0,29.65,NNE,23,0.0,0.0,43,0.00,CLR,FEW,0.00,WeatherDisplay:10.37,2013-04-10 05:10:00,
2013-04-10 01:15:00,63.6,41.3,29.65,NNE,24,0.0,0.0,44,0.00,CLR,FEW,0.00,WeatherDisplay:10.37,2013-04-10 05:15:00,
2013-04-10 01:20:00,63.4,40.5,29.65,NNE,24,0.0,0.0,43,0.00,CLR,FEW,0.00,WeatherDisplay:10.37,2013-04-10 05:20:00,
2013-04-10 01:25:00,63.4,40.5,29.65,NNE,24,0.0,0.0,43,0.00,CLR,FEW,0.00,WeatherDisplay:10.37,2013-04-10 05:25:00,
2013-04-10 01:31:00,63.0,40.1,29.65,NNE,24,0.0,0.0,43,0.00,CLR,FEW,0.00,WeatherDisplay:10.37,2013-04-10 05:31:00,
2013-04-10 01:36:00,63.0,40.7,29.64,NNE,24,0.0,0.0,44,0.00,CLR,FEW,0.00,WeatherDisplay:10.37,2013-04-10 05:36:00,
2013-04-10 01:41:00,63.1,40.2,29.64,NNE,24,0.0,0.0,43,0.00,CLR,FEW,0.00,WeatherDisplay:10.37,2013-04-10 05:41:00,
2013-04-10 01:46:00,62.9,41.2,29.64,NNE,24,0.0,0.0,45,0.00,CLR,FEW,0.00,WeatherDisplay:10.37,2013-04-10 05:46:00,
2013-04-10 01:51:00,62.7,40.5,29.63,NNE,24,0.0,0.0,44,0.00,CLR,FEW,0.00,WeatherDisplay:10.37,2013-04-10 05:51:00,
2013-04-10 01:56:00,62.6,41.5,29.63,NNE,24,0.0,0.0,46,0.00,CLR,FEW,0.00,WeatherDisplay:10.37,2013-04-10 05:56:00,
2013-04-10 02:01:00,62.4,40.8,29.62,NNE,24,0.0,0.0,45,0.00,CLR,FEW,0.00,WeatherDisplay:10.37,2013-04-10 06:01:00,
2013-04-10 02:06:00,62.3,41.2,29.62,NNE,24,0.0,0.0,46,0.00,CLR,FEW,0.00,WeatherDisplay:10.37,2013-04-10 06:06:00,
2013-04-10 02:11:00,62.2,41.7,29.61,NNE,24,0.0,0.0,47,0.00,CLR,FEW,0.00,WeatherDisplay:10.37,2013-04-10 06:11:00,
2013-04-10 02:16:00,62.0,41.5,29.61,NNE,24,0.0,0.0,47,0.00,CLR,FEW,0.00,WeatherDisplay:10.37,2013-04-10 06:16:00,
2013-04-10 02:21:00,61.8,41.9,29.61,NNE,24,0.0,0.0,48,0.00,CLR,FEW,0.00,WeatherDisplay:10.37,2013-04-10 06:21:00,
2013-04-10 02:26:00,61.5,41.6,29.61,NNE,23,0.0,0.0,48,0.00,CLR,FEW,0.00,WeatherDisplay:10.37,2013-04-10 06:26:00,
2013-04-10 02:31:00,61.3,42.0,29.60,NNE,24,0.0,0.0,49,0.00,CLR,FEW,0.00,WeatherDisplay:10.37,2013-04-10 06:31:00,
2013-04-10 02:37:00,61.1,42.3,29.60,NNE,23,0.0,0.0,50,0.00,CLR,FEW,0.00,WeatherDisplay:10.37,2013-04-10 06:37:00,
2013-04-10 02:42:00,61.0,42.2,29.60,NNE,23,0.0,0.0,50,0.00,CLR,FEW,0.00,WeatherDisplay:10.37,2013-04-10 06:42:00,
2013-04-10 02:47:00,61.0,42.2,29.61,NNE,24,0.0,0.0,50,0.00,CLR,FEW,0.00,WeatherDisplay:10.37,2013-04-10 06:47:00,
2013-04-10 02:52:00,61.2,41.9,29.62,NNE,24,5.0,5.0,49,0.00,CLR,FEW,0.00,WeatherDisplay:10.37,2013-04-10 06:52:00,
2013-04-10 02:57:00,61.7,41.3,29.66,NNW,341,19.6,19.6,47,0.00,CLR,FEW,0.00,WeatherDisplay:10.37,2013-04-10 06:57:00,
2013-04-10 03:02:00,61.7,41.3,29.66,North,7,17.3,17.3,47,0.00,CLR,FEW,0.00,WeatherDisplay:10.37,2013-04-10 07:02:00,
2013-04-10 03:07:00,61.6,41.2,29.67,North,359,15.0,15.0,47,0.00,CLR,FEW,0.00,WeatherDisplay:10.37,2013-04-10 07:07:00,
2013-04-10 03:12:00,61.5,41.6,29.67,North,11,20.0,20.0,48,0.00,CLR,FEW,0.00,WeatherDisplay:10.37,2013-04-10 07:12:00,
2013-04-10 03:17:00,61.0,42.2,29.67,North,355,22.0,22.0,50,0.00,CLR,FEW,0.00,WeatherDisplay:10.37,2013-04-10 07:17:00,
2013-04-10 03:22:00,59.9,42.2,29.67,NNE,17,13.8,13.8,52,0.00,CLR,FEW,0.00,WeatherDisplay:10.37,2013-04-10 07:22:00,
2013-04-10 03:27:00,59.1,42.5,29.67,North,4,20.7,20.7,54,0.00,CLR,FEW,0.00,WeatherDisplay:10.37,2013-04-10 07:27:00,
2013-04-10 03:32:00,58.1,42.9,29.66,NNW,344,11.5,11.5,57,0.00,CLR,FEW,0.00,WeatherDisplay:10.37,2013-04-10 07:32:00,
2013-04-10 03:37:00,57.5,43.3,29.67,NNE,31,10.4,10.4,59,0.00,CLR,FEW,0.00,WeatherDisplay:10.37,2013-04-10 07:37:00,
2013-04-10 03:42:00,56.7,43.4,29.67,NNE,17,11.5,11.5,61,0.00,CLR,FEW,0.00,WeatherDisplay:10.37,2013-04-10 07:42:00,
2013-04-10 03:47:00,55.6,43.2,29.67,NNE,24,18.4,18.4,63,0.00,CLR,FEW,0.00,WeatherDisplay:10.37,2013-04-10 07:47:00,
2013-04-10 03:52:00,54.5,43.8,29.67,North,11,13.8,13.8,67,0.00,CLR,FEW,0.00,WeatherDisplay:10.37,2013-04-10 07:52:00,
2013-04-10 03:57:00,53.9,43.6,29.67,NNE,28,13.8,13.8,68,0.00,CLR,FEW,0.00,WeatherDisplay:10.37,2013-04-10 07:57:00,
2013-04-10 04:02:00,53.5,44.3,29.67,North,0,11.5,11.5,71,0.00,CLR,FEW,0.00,WeatherDisplay:10.37,2013-04-10 08:02:00,
2013-04-10 04:07:00,53.2,44.4,29.67,North,10,12.0,12.0,72,0.00,CLR,FEW,0.00,WeatherDisplay:10.37,2013-04-10 08:07:00,
2013-04-10 04:12:00,52.9,44.5,29.67,North,10,11.5,11.5,73,0.00,CLR,FEW,0.00,WeatherDisplay:10.37,2013-04-10 08:12:00,
2013-04-10 04:17:00,52.7,44.6,29.66,NNE,32,9.2,9.2,74,0.00,CLR,FEW,0.00,WeatherDisplay:10.37,2013-04-10 08:17:00,
2013-04-10 04:22:00,52.6,45.2,29.66,NNE,25,5.0,5.0,76,0.00,CLR,FEW,0.00,WeatherDisplay:10.37,2013-04-10 08:22:00,
2013-04-10 04:27:00,52.5,45.2,29.66,North,11,11.5,11.5,76,0.00,CLR,FEW,0.00,WeatherDisplay:10.37,2013-04-10 08:27:00,
2013-04-10 04:32:00,52.3,45.6,29.66,NNW,348,9.2,9.2,78,0.00,CLR,FEW,0.00,WeatherDisplay:10.37,2013-04-10 08:32:00,
2013-04-10 04:37:00,52.3,46.0,29.67,NNE,19,10.4,10.4,79,0.00,CLR,FEW,0.00,WeatherDisplay:10.37,2013-04-10 08:37:00,
2013-04-10 04:42:00,52.2,46.2,29.67,North,359,5.8,5.8,80,0.00,CLR,FEW,0.00,WeatherDisplay:10.37,2013-04-10 08:42:00,
2013-04-10 04:47:00,52.1,46.4,29.67,North,2,6.9,6.9,81,0.00,CLR,FEW,0.00,WeatherDisplay:10.37,2013-04-10 08:47:00,
2013-04-10 04:52:00,52.0,46.3,29.67,NNW,347,4.6,4.6,81,0.00,CLR,FEW,0.00,WeatherDisplay:10.37,2013-04-10 08:52:00,
2013-04-10 04:57:00,51.9,46.6,29.67,North,359,4.6,4.6,82,0.00,CLR,FEW,0.00,WeatherDisplay:10.37,2013-04-10 08:57:00,
2013-04-10 05:02:00,51.9,46.9,29.67,North,359,3.5,3.5,83,0.00,CLR,FEW,0.00,WeatherDisplay:10.37,2013-04-10 09:02:00,
2013-04-10 05:07:00,51.8,46.8,29.67,North,359,0.0,0.0,83,0.00,CLR,FEW,0.00,WeatherDisplay:10.37,2013-04-10 09:07:00,
2013-04-10 05:12:00,51.8,46.8,29.68,North,359,3.5,3.5,83,0.00,CLR,FEW,0.00,WeatherDisplay:10.37,2013-04-10 09:12:00,
2013-04-10 05:17:00,51.8,46.8,29.68,NNW,340,3.5,3.5,83,0.00,CLR,FEW,0.00,WeatherDisplay:10.37,2013-04-10 09:17:00,
2013-04-10 05:22:00,51.6,46.9,29.67,NNW,340,2.3,2.3,84,0.00,CLR,FEW,0.00,WeatherDisplay:10.37,2013-04-10 09:22:00,
2013-04-10 05:27:00,51.5,47.1,29.68,NNW,340,1.2,1.2,85,0.00,CLR,FEW,0.00,WeatherDisplay:10.37,2013-04-10 09:27:00,
2013-04-10 05:32:00,51.5,47.1,29.67,NNW,340,0.0,0.0,85,0.00,CLR,FEW,0.00,WeatherDisplay:10.37,2013-04-10 09:32:00,
2013-04-10 05:37:00,51.5,47.5,29.69,NNW,340,3.5,3.5,86,0.00,CLR,FEW,0.00,WeatherDisplay:10.37,2013-04-10 09:37:00,
2013-04-10 05:42:00,51.5,47.5,29.69,NW,307,3.5,3.5,86,0.00,CLR,FEW,0.00,WeatherDisplay:10.37,2013-04-10 09:42:00,
2013-04-10 05:47:00,51.6,47.5,29.70,NW,317,4.6,4.6,86,0.00,CLR,FEW,0.00,WeatherDisplay:10.37,2013-04-10 09:47:00,
2013-04-10 05:52:00,51.5,47.5,29.70,NW,317,3.5,3.5,86,0.00,CLR,FEW,0.00,WeatherDisplay:10.37,2013-04-10 09:52:00,
2013-04-10 05:57:00,51.6,47.5,29.68,NW,317,0.0,0.0,86,0.00,CLR,FEW,0.00,WeatherDisplay:10.37,2013-04-10 09:57:00,
2013-04-10 06:02:00,51.6,47.5,29.69,NW,317,3.0,3.0,86,0.00,CLR,FEW,0.00,WeatherDisplay:10.37,2013-04-10 10:02:00,
2013-04-10 06:07:00,51.7,47.6,29.68,NW,317,0.0,0.0,86,0.00,CLR,FEW,0.00,WeatherDisplay:10.37,2013-04-10 10:07:00,
2013-04-10 06:12:00,51.5,47.5,29.68,NW,317,0.0,0.0,86,0.00,CLR,FEW,0.00,WeatherDisplay:10.37,2013-04-10 10:12:00,
2013-04-10 06:17:00,51.7,47.6,29.69,NW,317,0.0,0.0,86,0.00,CLR,FEW,0.00,WeatherDisplay:10.37,2013-04-10 10:17:00,
2013-04-10 06:22:00,51.5,47.5,29.70,NW,317,1.2,0.0,86,0.00,CLR,FEW,0.00,WeatherDisplay:10.37,2013-04-10 10:22:00,
2013-04-10 06:27:00,51.7,47.6,29.69,NW,317,0.0,0.0,86,0.00,CLR,FEW,0.00,WeatherDisplay:10.37,2013-04-10 10:27:00,
2013-04-10 06:32:00,51.6,47.5,29.69,NW,317,1.0,1.0,86,0.00,CLR,FEW,0.00,WeatherDisplay:10.37,2013-04-10 10:32:00,
2013-04-10 06:38:00,51.7,47.6,29.69,NW,317,0.0,0.0,86,0.00,CLR,FEW,0.00,WeatherDisplay:10.37,2013-04-10 10:38:00,
2013-04-10 06:43:00,51.6,47.5,29.70,NW,317,0.0,0.0,86,0.00,CLR,FEW,0.00,WeatherDisplay:10.37,2013-04-10 10:43:00,
2013-04-10 06:48:00,51.8,47.7,29.69,NW,317,0.0,0.0,86,0.00,CLR,FEW,0.00,WeatherDisplay:10.37,2013-04-10 10:48:00,
2013-04-10 06:53:00,51.8,48.1,29.69,NW,317,0.0,0.0,87,0.00,CLR,FEW,0.00,WeatherDisplay:10.37,2013-04-10 10:53:00,
2013-04-10 06:58:00,52.0,47.9,29.70,NW,317,0.0,0.0,86,0.00,CLR,FEW,0.00,WeatherDisplay:10.37,2013-04-10 10:58:00,
2013-04-10 07:03:00,52.1,48.0,29.69,NW,317,0.0,0.0,86,0.00,CLR,FEW,0.00,WeatherDisplay:10.37,2013-04-10 11:03:00,
2013-04-10 07:08:00,52.2,48.1,29.69,NW,317,0.0,0.0,86,0.00,CLR,FEW,0.00,WeatherDisplay:10.37,2013-04-10 11:08:00,
2013-04-10 07:13:00,52.2,48.1,29.71,NW,316,0.0,0.0,86,0.00,CLR,FEW,0.00,WeatherDisplay:10.37,2013-04-10 11:13:00,
2013-04-10 07:18:00,52.4,48.3,29.71,NW,317,0.0,0.0,86,0.00,CLR,FEW,0.00,WeatherDisplay:10.37,2013-04-10 11:18:00,
2013-04-10 07:23:00,52.4,48.3,29.72,NW,317,3.5,3.5,86,0.00,CLR,FEW,0.00,WeatherDisplay:10.37,2013-04-10 11:23:00,
2013-04-10 07:28:00,52.7,48.3,29.72,NW,317,1.2,0.0,85,0.00,CLR,FEW,0.00,WeatherDisplay:10.37,2013-04-10 11:28:00,
2013-04-10 07:33:00,52.8,48.4,29.72,NW,317,0.0,0.0,85,0.00,CLR,FEW,0.00,WeatherDisplay:10.37,2013-04-10 11:33:00,
2013-04-10 07:38:00,53.2,48.5,29.72,NW,317,2.3,0.0,84,0.00,CLR,FEW,0.00,WeatherDisplay:10.37,2013-04-10 11:38:00,
2013-04-10 07:43:00,53.3,48.6,29.73,NW,317,0.0,0.0,84,0.00,CLR,FEW,0.00,WeatherDisplay:10.37,2013-04-10 11:43:00,
2013-04-10 07:48:00,53.7,48.7,29.72,NW,317,0.0,0.0,83,0.00,CLR,FEW,0.00,WeatherDisplay:10.37,2013-04-10 11:48:00,
2013-04-10 07:53:00,53.8,48.8,29.73,NW,317,0.0,0.0,83,0.00,CLR,FEW,0.00,WeatherDisplay:10.37,2013-04-10 11:53:00,
2013-04-10 07:58:00,53.9,48.5,29.73,NW,317,3.5,3.5,82,0.00,CLR,FEW,0.00,WeatherDisplay:10.37,2013-04-10 11:58:00,
2013-04-10 08:03:00,54.1,48.7,29.74,NW,317,4.0,4.0,82,0.00,CLR,FEW,0.00,WeatherDisplay:10.37,2013-04-10 12:03:00,
2013-04-10 08:08:00,54.2,48.5,29.74,NW,317,1.2,1.2,81,0.00,CLR,FEW,0.00,WeatherDisplay:10.37,2013-04-10 12:08:00,
2013-04-10 08:13:00,54.5,48.8,29.73,NNW,330,2.3,2.3,81,0.00,CLR,FEW,0.00,WeatherDisplay:10.37,2013-04-10 12:13:00,
2013-04-10 08:18:00,54.6,48.6,29.73,North,0,0.0,0.0,80,0.00,CLR,FEW,0.00,WeatherDisplay:10.37,2013-04-10 12:18:00,
2013-04-10 08:23:00,54.9,48.8,29.73,North,0,0.0,0.0,80,0.00,CLR,FEW,0.00,WeatherDisplay:10.37,2013-04-10 12:23:00,
2013-04-10 08:28:00,55.3,49.2,29.73,North,0,0.0,0.0,80,0.00,CLR,FEW,0.00,WeatherDisplay:10.37,2013-04-10 12:28:00,
2013-04-10 08:33:00,55.4,48.7,29.74,North,2,3.5,3.5,78,0.00,CLR,FEW,0.00,WeatherDisplay:10.37,2013-04-10 12:33:00,
2013-04-10 08:38:00,55.6,49.2,29.73,North,3,3.5,3.5,79,0.00,CLR,FEW,0.00,WeatherDisplay:10.37,2013-04-10 12:38:00,
2013-04-10 08:43:00,55.6,48.8,29.74,NNE,24,1.2,1.2,78,0.00,CLR,FEW,0.00,WeatherDisplay:10.37,2013-04-10 12:43:00,
2013-04-10 08:48:00,55.7,48.9,29.73,NE,34,6.9,6.9,78,0.00,CLR,FEW,0.00,WeatherDisplay:10.37,2013-04-10 12:48:00,
2013-04-10 08:53:00,55.6,48.5,29.73,NE,47,5.0,5.0,77,0.00,CLR,FEW,0.00,WeatherDisplay:10.37,2013-04-10 12:53:00,
2013-04-10 08:58:00,55.7,48.6,29.72,NE,36,3.5,3.5,77,0.00,CLR,FEW,0.00,WeatherDisplay:10.37,2013-04-10 12:58:00,
2013-04-10 09:03:00,55.9,48.8,29.72,NE,43,4.6,4.6,77,0.00,CLR,FEW,0.00,WeatherDisplay:10.37,2013-04-10 13:03:00,
2013-04-10 09:08:00,56.0,48.5,29.73,NNE,30,5.8,5.8,76,0.00,CLR,FEW,0.00,WeatherDisplay:10.37,2013-04-10 13:08:00,
2013-04-10 09:13:00,56.0,48.9,29.73,NE,35,3.5,3.5,77,0.00,CLR,FEW,0.00,WeatherDisplay:10.37,2013-04-10 13:13:00,
2013-04-10 09:18:00,56.2,49.1,29.73,NE,39,3.5,3.5,77,0.00,CLR,FEW,0.00,WeatherDisplay:10.37,2013-04-10 13:18:00,
2013-04-10 09:23:00,56.7,49.6,29.73,ENE,67,3.5,3.5,77,0.00,CLR,FEW,0.00,WeatherDisplay:10.37,2013-04-10 13:23:00,
2013-04-10 09:28:00,57.1,49.2,29.73,ENE,67,3.5,3.5,75,0.00,CLR,FEW,0.00,WeatherDisplay:10.37,2013-04-10 13:28:00,
2013-04-10 09:33:00,57.2,49.3,29.72,ENE,69,3.5,3.5,75,0.00,CLR,FEW,0.00,WeatherDisplay:10.37,2013-04-10 13:33:00,
2013-04-10 09:38:00,57.7,49.8,29.72,East,86,3.5,3.5,75,0.00,CLR,FEW,0.00,WeatherDisplay:10.37,2013-04-10 13:38:00,
2013-04-10 09:43:00,58.1,49.9,29.73,East,89,4.0,4.0,74,0.00,CLR,FEW,0.00,WeatherDisplay:10.37,2013-04-10 13:43:00,
2013-04-10 09:48:00,58.4,49.8,29.72,East,88,5.0,5.0,73,0.00,CLR,FEW,0.00,WeatherDisplay:10.37,2013-04-10 13:48:00,
2013-04-10 09:53:00,58.7,50.1,29.73,ENE,72,4.0,4.0,73,0.00,CLR,FEW,0.00,WeatherDisplay:10.37,2013-04-10 13:53:00,
2013-04-10 09:58:00,58.7,49.7,29.73,NE,46,4.6,4.6,72,0.00,CLR,FEW,0.00,WeatherDisplay:10.37,2013-04-10 13:58:00,
2013-04-10 10:03:00,58.6,49.2,29.73,NE,46,2.3,2.3,71,0.00,CLR,FEW,0.00,WeatherDisplay:10.37,2013-04-10 14:03:00,
2013-04-10 10:08:00,58.9,49.5,29.73,NE,47,3.5,3.5,71,0.00,CLR,FEW,0.00,WeatherDisplay:10.37,2013-04-10 14:08:00,
2013-04-10 10:13:00,59.2,49.4,29.73,ENE,59,1.2,1.2,70,0.00,CLR,FEW,0.00,WeatherDisplay:10.37,2013-04-10 14:13:00,
2013-04-10 10:18:00,59.4,49.6,29.72,ENE,66,8.1,8.1,70,0.00,CLR,FEW,0.00,WeatherDisplay:10.37,2013-04-10 14:18:00,
2013-04-10 10:23:00,59.8,49.6,29.73,ENE,74,5.8,5.8,69,0.00,CLR,FEW,0.00,WeatherDisplay:10.37,2013-04-10 14:23:00,
2013-04-10 10:28:00,59.6,49.4,29.73,NE,41,5.8,5.8,69,0.00,CLR,FEW,0.00,WeatherDisplay:10.37,2013-04-10 14:28:00,
2013-04-10 10:33:00,59.9,49.7,29.72,NNE,32,7.0,7.0,69,0.00,CLR,FEW,0.00,WeatherDisplay:10.37,2013-04-10 14:33:00,
2013-04-10 10:38:00,60.0,49.4,29.73,NNE,28,5.8,5.8,68,0.00,CLR,FEW,0.00,WeatherDisplay:10.37,2013-04-10 14:38:00,
2013-04-10 10:43:00,60.2,49.6,29.73,North,10,9.2,9.2,68,0.00,CLR,FEW,0.00,WeatherDisplay:10.37,2013-04-10 14:43:00,
2013-04-10 10:48:00,60.3,49.7,29.73,North,0,5.8,5.8,68,0.00,CLR,FEW,0.00,WeatherDisplay:10.37,2013-04-10 14:48:00,
2013-04-10 10:53:00,60.7,49.7,29.73,NE,37,3.5,3.5,67,0.00,CLR,FEW,0.00,WeatherDisplay:10.37,2013-04-10 14:53:00,
2013-04-10 10:58:00,61.0,50.0,29.73,NE,43,6.9,6.9,67,0.00,CLR,FEW,0.00,WeatherDisplay:10.37,2013-04-10 14:58:00,
2013-04-10 11:03:00,61.4,50.3,29.73,NNE,31,4.6,4.6,67,0.00,CLR,FEW,0.00,WeatherDisplay:10.37,2013-04-10 15:03:00,
2013-04-10 11:08:00,61.5,50.4,29.73,NNE,19,4.0,4.0,67,0.00,CLR,FEW,0.00,WeatherDisplay:10.37,2013-04-10 15:08:00,
2013-04-10 11:13:00,61.7,49.8,29.74,NE,55,7.0,7.0,65,0.00,CLR,FEW,0.00,WeatherDisplay:10.37,2013-04-10 15:13:00,
2013-04-10 11:18:00,61.2,49.7,29.73,NE,47,3.5,3.5,66,0.00,CLR,FEW,0.00,WeatherDisplay:10.37,2013-04-10 15:18:00,
2013-04-10 11:23:00,61.7,50.6,29.73,NNE,26,8.1,8.1,67,0.00,CLR,FEW,0.00,WeatherDisplay:10.37,2013-04-10 15:23:00,
2013-04-10 11:28:00,61.8,50.7,29.73,NE,56,5.8,5.8,67,0.00,CLR,FEW,0.00,WeatherDisplay:10.37,2013-04-10 15:28:00,
2013-04-10 11:33:00,62.0,50.5,29.72,ENE,64,10.4,10.4,66,0.00,CLR,FEW,0.00,WeatherDisplay:10.37,2013-04-10 15:33:00,
2013-04-10 11:38:00,61.7,50.6,29.73,ENE,66,8.1,8.1,67,0.00,CLR,FEW,0.00,WeatherDisplay:10.37,2013-04-10 15:38:00,
2013-04-10 11:43:00,61.8,50.7,29.72,ENE,59,10.4,10.4,67,0.00,CLR,FEW,0.00,WeatherDisplay:10.37,2013-04-10 15:43:00,
2013-04-10 11:48:00,61.7,50.6,29.73,NNE,31,8.1,8.1,67,0.00,CLR,FEW,0.00,WeatherDisplay:10.37,2013-04-10 15:48:00,
2013-04-10 11:53:00,61.7,51.0,29.72,NE,49,11.5,11.5,68,0.00,CLR,FEW,0.00,WeatherDisplay:10.37,2013-04-10 15:53:00,
2013-04-10 11:58:00,61.9,51.2,29.73,ENE,60,11.5,11.5,68,0.00,CLR,FEW,0.00,WeatherDisplay:10.37,2013-04-10 15:58:00,
2013-04-10 12:03:00,62.2,51.9,29.73,NE,52,9.2,9.2,69,0.00,CLR,FEW,0.00,WeatherDisplay:10.37,2013-04-10 16:03:00,
2013-04-10 12:08:00,62.1,51.4,29.73,NNE,14,11.5,11.5,68,0.00,CLR,FEW,0.00,WeatherDisplay:10.37,2013-04-10 16:08:00,
2013-04-10 12:13:00,61.9,51.6,29.73,NE,35,10.4,10.4,69,0.00,CLR,FEW,0.00,WeatherDisplay:10.37,2013-04-10 16:13:00,
2013-04-10 12:18:00,62.3,52.0,29.73,NE,40,10.4,10.4,69,0.00,CLR,FEW,0.00,WeatherDisplay:10.37,2013-04-10 16:18:00,
2013-04-10 12:23:00,62.3,52.0,29.73,NNE,23,9.2,9.2,69,0.00,CLR,FEW,0.00,WeatherDisplay:10.37,2013-04-10 16:23:00,
2013-04-10 12:28:00,62.8,52.5,29.73,NNE,26,11.5,11.5,69,0.00,CLR,FEW,0.00,WeatherDisplay:10.37,2013-04-10 16:28:00,
2013-04-10 12:33:00,63.2,52.9,29.72,NNE,24,11.5,11.5,69,0.00,CLR,FEW,0.00,WeatherDisplay:10.37,2013-04-10 16:33:00,
2013-04-10 12:38:00,63.3,52.6,29.71,NNE,24,11.5,11.5,68,0.00,CLR,FEW,0.00,WeatherDisplay:10.37,2013-04-10 16:38:00,
2013-04-10 12:43:00,63.1,52.4,29.72,NNE,20,12.0,12.0,68,0.00,CLR,FEW,0.00,WeatherDisplay:10.37,2013-04-10 16:43:00,
2013-04-10 12:48:00,63.3,53.0,29.72,North,3,13.8,13.8,69,0.00,CLR,FEW,0.00,WeatherDisplay:10.37,2013-04-10 16:48:00,
2013-04-10 12:53:00,63.3,52.6,29.72,NNE,24,11.5,11.5,68,0.00,CLR,FEW,0.00,WeatherDisplay:10.37,2013-04-10 16:53:00,
2013-04-10 12:58:00,63.2,52.5,29.71,NNE,14,12.0,12.0,68,0.00,CLR,FEW,0.00,WeatherDisplay:10.37,2013-04-10 16:58:00,
2013-04-10 13:03:00,63.4,52.7,29.71,North,9,12.7,12.7,68,0.00,CLR,FEW,0.00,WeatherDisplay:10.37,2013-04-10 17:03:00,
2013-04-10 13:08:00,63.9,53.5,29.71,NNW,344,9.2,9.2,69,0.00,CLR,FEW,0.00,WeatherDisplay:10.37,2013-04-10 17:08:00,
2013-04-10 13:13:00,64.5,53.3,29.71,North,2,8.1,8.1,67,0.00,CLR,FEW,0.00,WeatherDisplay:10.37,2013-04-10 17:13:00,
2013-04-10 13:18:00,64.8,53.6,29.71,NE,52,11.5,11.5,67,0.00,CLR,FEW,0.00,WeatherDisplay:10.37,2013-04-10 17:18:00,
2013-04-10 13:23:00,65.0,53.8,29.71,NE,51,6.9,6.9,67,0.00,CLR,FEW,0.00,WeatherDisplay:10.37,2013-04-10 17:23:00,
2013-04-10 13:28:00,65.2,53.6,29.70,NE,52,6.9,6.9,66,0.00,CLR,FEW,0.00,WeatherDisplay:10.37,2013-04-10 17:28:00,
2013-04-10 13:33:00,65.3,53.6,29.71,NNE,13,11.0,11.0,66,0.00,CLR,FEW,0.00,WeatherDisplay:10.37,2013-04-10 17:33:00,
2013-04-10 13:38:00,65.1,53.0,29.72,NNE,28,11.5,11.5,65,0.00,CLR,FEW,0.00,WeatherDisplay:10.37,2013-04-10 17:38:00,
2013-04-10 13:43:00,64.4,52.8,29.71,NNE,13,3.5,3.5,66,0.00,CLR,FEW,0.00,WeatherDisplay:10.37,2013-04-10 17:43:00,
2013-04-10 13:48:00,64.9,53.3,29.72,NE,43,9.2,9.2,66,0.00,CLR,FEW,0.00,WeatherDisplay:10.37,2013-04-10 17:48:00,
2013-04-10 13:53:00,65.1,53.5,29.71,NNE,23,7.0,7.0,66,0.00,CLR,FEW,0.00,WeatherDisplay:10.37,2013-04-10 17:53:00,
2013-04-10 13:58:00,65.3,53.6,29.71,NNE,23,11.5,11.5,66,0.00,CLR,FEW,0.00,WeatherDisplay:10.37,2013-04-10 17:58:00,
2013-04-10 14:03:00,65.5,53.4,29.70,North,9,10.4,10.4,65,0.00,CLR,FEW,0.00,WeatherDisplay:10.37,2013-04-10 18:03:00,
2013-04-10 14:08:00,65.8,53.7,29.70,NE,37,9.2,9.2,65,0.00,CLR,FEW,0.00,WeatherDisplay:10.37,2013-04-10 18:08:00,
2013-04-10 14:13:00,65.8,53.7,29.69,NE,38,10.4,10.4,65,0.00,CLR,FEW,0.00,WeatherDisplay:10.37,2013-04-10 18:13:00,
2013-04-10 14:18:00,65.7,53.6,29.69,ENE,68,10.4,10.4,65,0.00,CLR,FEW,0.00,WeatherDisplay:10.37,2013-04-10 18:18:00,
2013-04-10 14:23:00,65.6,53.1,29.69,NNE,13,10.0,10.0,64,0.00,CLR,FEW,0.00,WeatherDisplay:10.37,2013-04-10 18:23:00,
2013-04-10 14:28:00,65.1,53.0,29.70,North,0,11.5,11.5,65,0.00,CLR,FEW,0.00,WeatherDisplay:10.37,2013-04-10 18:28:00,
2013-04-10 14:33:00,65.0,53.4,29.70,North,357,11.5,11.5,66,0.00,CLR,FEW,0.00,WeatherDisplay:10.37,2013-04-10 18:33:00,
2013-04-10 14:38:00,65.3,53.2,29.70,ENE,76,11.5,11.5,65,0.00,CLR,FEW,0.00,WeatherDisplay:10.37,2013-04-10 18:38:00,
2013-04-10 14:43:00,65.0,52.9,29.70,NE,53,12.7,12.7,65,0.00,CLR,FEW,0.00,WeatherDisplay:10.37,2013-04-10 18:43:00,
2013-04-10 14:48:00,64.6,52.6,29.70,East,80,13.8,13.8,65,0.00,CLR,FEW,0.00,WeatherDisplay:10.37,2013-04-10 18:48:00,
2013-04-10 14:53:00,64.3,52.7,29.69,NNE,13,12.0,12.0,66,0.00,CLR,FEW,0.00,WeatherDisplay:10.37,2013-04-10 18:53:00,
2013-04-10 14:58:00,64.5,53.3,29.69,NE,45,11.5,11.5,67,0.00,CLR,FEW,0.00,WeatherDisplay:10.37,2013-04-10 18:58:00,
2013-04-10 15:03:00,64.7,53.1,29.69,East,84,7.0,7.0,66,0.00,CLR,FEW,0.00,WeatherDisplay:10.37,2013-04-10 19:03:00,
2013-04-10 15:08:00,65.1,53.5,29.69,NNE,24,11.5,11.5,66,0.00,CLR,FEW,0.00,WeatherDisplay:10.37,2013-04-10 19:08:00,
2013-04-10 15:13:00,65.0,53.4,29.68,ENE,72,9.2,9.2,66,0.00,CLR,FEW,0.00,WeatherDisplay:10.37,2013-04-10 19:13:00,
2013-04-10 15:18:00,65.2,53.1,29.68,NE,35,10.4,10.4,65,0.00,CLR,FEW,0.00,WeatherDisplay:10.37,2013-04-10 19:18:00,
2013-04-10 15:23:00,65.1,53.5,29.68,North,2,11.5,11.5,66,0.00,CLR,FEW,0.00,WeatherDisplay:10.37,2013-04-10 19:23:00,
2013-04-10 15:28:00,65.4,53.3,29.68,NNE,25,6.9,6.9,65,0.00,CLR,FEW,0.00,WeatherDisplay:10.37,2013-04-10 19:28:00,
2013-04-10 15:33:00,65.9,53.8,29.67,NNE,21,9.2,9.2,65,0.00,CLR,FEW,0.00,WeatherDisplay:10.37,2013-04-10 19:33:00,
2013-04-10 15:38:00,66.2,54.1,29.66,NE,54,3.5,3.5,65,0.00,CLR,FEW,0.00,WeatherDisplay:10.37,2013-04-10 19:38:00,
2013-04-10 15:43:00,66.3,54.2,29.65,ENE,58,5.8,5.8,65,0.00,CLR,FEW,0.00,WeatherDisplay:10.37,2013-04-10 19:43:00,
2013-04-10 15:48:00,66.3,53.8,29.64,ENE,58,6.9,6.9,64,0.00,CLR,FEW,0.00,WeatherDisplay:10.37,2013-04-10 19:48:00,
2013-04-10 15:53:00,66.2,54.1,29.65,North,5,9.2,9.2,65,0.00,CLR,FEW,0.00,WeatherDisplay:10.37,2013-04-10 19:53:00,
2013-04-10 15:58:00,66.6,54.0,29.66,North,8,10.4,10.4,64,0.00,CLR,FEW,0.00,WeatherDisplay:10.37,2013-04-10 19:58:00,
2013-04-10 16:03:00,67.1,54.5,29.66,North,355,8.0,8.0,64,0.00,CLR,FEW,0.00,WeatherDisplay:10.37,2013-04-10 20:03:00,
2013-04-10 16:08:00,67.0,54.0,29.65,NNE,17,9.0,9.0,63,0.00,CLR,FEW,0.00,WeatherDisplay:10.37,2013-04-10 20:08:00,
2013-04-10 16:13:00,67.5,54.5,29.65,North,9,11.5,11.5,63,0.00,CLR,FEW,0.00,WeatherDisplay:10.37,2013-04-10 20:13:00,
2013-04-10 16:18:00,67.1,54.1,29.65,NE,41,9.2,9.2,63,0.00,CLR,FEW,0.00,WeatherDisplay:10.37,2013-04-10 20:18:00,
2013-04-10 16:23:00,67.1,54.1,29.64,NE,35,5.8,5.8,63,0.00,CLR,FEW,0.00,WeatherDisplay:10.37,2013-04-10 20:23:00,
2013-04-10 16:28:00,67.6,54.6,29.64,NE,35,5.8,5.8,63,0.00,CLR,FEW,0.00,WeatherDisplay:10.37,2013-04-10 20:28:00,
2013-04-10 16:34:00,67.8,54.3,29.63,East,89,3.5,3.5,62,0.00,CLR,FEW,0.00,WeatherDisplay:10.37,2013-04-10 20:34:00,
2013-04-10 16:39:00,68.1,54.6,29.63,East,81,3.5,3.5,62,0.00,CLR,FEW,0.00,WeatherDisplay:10.37,2013-04-10 20:39:00,
2013-04-10 16:44:00,68.8,54.8,29.63,East,100,2.3,2.3,61,0.00,CLR,FEW,0.00,WeatherDisplay:10.37,2013-04-10 20:44:00,
2013-04-10 16:49:00,69.0,54.5,29.63,East,90,8.1,8.1,60,0.00,CLR,FEW,0.00,WeatherDisplay:10.37,2013-04-10 20:49:00,
2013-04-10 16:54:00,68.7,53.3,29.63,ESE,102,11.5,11.5,58,0.00,CLR,FEW,0.00,WeatherDisplay:10.37,2013-04-10 20:54:00,
2013-04-10 16:59:00,68.6,53.7,29.62,ESE,111,11.5,11.5,59,0.00,CLR,FEW,0.00,WeatherDisplay:10.37,2013-04-10 20:59:00,
2013-04-10 17:04:00,68.5,53.6,29.63,ESE,121,6.9,6.9,59,0.00,CLR,FEW,0.00,WeatherDisplay:10.37,2013-04-10 21:04:00,
2013-04-10 17:09:00,69.0,54.1,29.62,SSE,164,5.8,5.8,59,0.00,CLR,FEW,0.00,WeatherDisplay:10.37,2013-04-10 21:09:00,
2013-04-10 17:14:00,69.0,54.1,29.62,SE,130,9.2,9.2,59,0.00,CLR,FEW,0.00,WeatherDisplay:10.37,2013-04-10 21:14:00,
2013-04-10 17:19:00,68.5,53.1,29.61,SSE,148,9.2,9.2,58,0.00,CLR,FEW,0.00,WeatherDisplay:10.37,2013-04-10 21:19:00,
2013-04-10 17:24:00,68.4,53.5,29.61,ESE,117,11.5,11.5,59,0.00,CLR,FEW,0.00,WeatherDisplay:10.37,2013-04-10 21:24:00,
2013-04-10 17:29:00,68.3,53.4,29.61,ESE,122,6.9,6.9,59,0.00,CLR,FEW,0.00,WeatherDisplay:10.37,2013-04-10 21:29:00,
2013-04-10 17:34:00,68.5,53.6,29.61,SSE,157,12.7,12.7,59,0.00,CLR,FEW,0.00,WeatherDisplay:10.37,2013-04-10 21:34:00,
2013-04-10 17:39:00,68.4,54.0,29.61,SE,133,11.5,11.5,60,0.00,CLR,FEW,0.00,WeatherDisplay:10.37,2013-04-10 21:39:00,
2013-04-10 17:44:00,67.8,53.4,29.61,SE,127,11.5,11.5,60,0.00,CLR,FEW,0.00,WeatherDisplay:10.37,2013-04-10 21:44:00,
2013-04-10 17:49:00,67.4,53.5,29.62,SSE,161,5.8,5.8,61,0.00,CLR,FEW,0.00,WeatherDisplay:10.37,2013-04-10 21:49:00,
2013-04-10 17:54:00,67.5,53.1,29.62,SE,134,8.1,8.1,60,0.00,CLR,FEW,0.00,WeatherDisplay:10.37,2013-04-10 21:54:00,
2013-04-10 17:59:00,67.4,53.0,29.62,SE,127,9.2,9.2,60,0.00,CLR,FEW,0.00,WeatherDisplay:10.37,2013-04-10 21:59:00,
2013-04-10 18:04:00,66.9,52.6,29.62,SSE,157,5.8,5.8,60,0.00,CLR,FEW,0.00,WeatherDisplay:10.37,2013-04-10 22:04:00,
2013-04-10 18:09:00,66.5,51.7,29.62,SE,131,11.5,11.5,59,0.00,CLR,FEW,0.00,WeatherDisplay:10.37,2013-04-10 22:09:00,
2013-04-10 18:14:00,66.3,52.0,29.61,SE,135,5.8,5.8,60,0.00,CLR,FEW,0.00,WeatherDisplay:10.37,2013-04-10 22:14:00,
2013-04-10 18:19:00,66.1,51.4,29.62,South,175,6.9,6.9,59,0.00,CLR,FEW,0.00,WeatherDisplay:10.37,2013-04-10 22:19:00,
2013-04-10 18:24:00,65.7,51.0,29.60,SSE,156,6.9,6.9,59,0.00,CLR,FEW,0.00,WeatherDisplay:10.37,2013-04-10 22:24:00,
2013-04-10 18:29:00,65.3,51.1,29.60,SE,142,12.7,12.7,60,0.00,CLR,FEW,0.00,WeatherDisplay:10.37,2013-04-10 22:29:00,
2013-04-10 18:34:00,64.8,50.6,29.60,SSE,155,10.4,10.4,60,0.00,CLR,FEW,0.00,WeatherDisplay:10.37,2013-04-10 22:34:00,
2013-04-10 18:39:00,64.3,50.6,29.61,SE,144,6.0,6.0,61,0.00,CLR,FEW,0.00,WeatherDisplay:10.37,2013-04-10 22:39:00,
2013-04-10 18:44:00,63.8,51.0,29.62,SE,141,5.8,5.8,63,0.00,CLR,FEW,0.00,WeatherDisplay:10.37,2013-04-10 22:44:00,
2013-04-10 18:49:00,64.1,52.1,29.75,WSW,258,32.0,32.0,65,0.00,CLR,FEW,0.00,WeatherDisplay:10.37,2013-04-10 22:49:00,
2013-04-10 18:54:00,62.7,52.4,29.70,WSW,252,11.5,11.5,69,0.11,RA,FEW,0.11,WeatherDisplay:10.37,2013-04-10 22:54:00,
2013-04-10 18:59:00,61.0,52.3,29.68,South,182,9.2,9.2,73,0.28,RA,FEW,0.28,WeatherDisplay:10.37,2013-04-10 22:59:00,
2013-04-10 19:04:00,59.6,53.4,29.68,SSW,198,4.6,4.6,80,0.29,RA,FEW,0.29,WeatherDisplay:10.37,2013-04-10 23:04:00,
2013-04-10 19:09:00,58.9,54.1,29.68,South,175,8.1,8.1,84,0.31,RA,FEW,0.32,WeatherDisplay:10.37,2013-04-10 23:09:00,
2013-04-10 19:14:00,58.2,55.0,29.68,SSW,195,5.8,5.8,89,0.32,RA,FEW,0.32,WeatherDisplay:10.37,2013-04-10 23:14:00,
2013-04-10 19:19:00,57.9,56.2,29.68,South,188,8.1,8.1,94,0.34,RA,FEW,0.34,WeatherDisplay:10.37,2013-04-10 23:19:00,
2013-04-10 19:24:00,57.7,56.6,29.67,South,186,2.3,2.3,96,0.36,RA,FEW,0.36,WeatherDisplay:10.37,2013-04-10 23:24:00,
2013-04-10 19:29:00,57.4,56.8,29.65,SE,129,8.1,8.1,98,0.37,RA,FEW,0.37,WeatherDisplay:10.37,2013-04-10 23:29:00,
2013-04-10 19:34:00,57.1,57.1,29.65,SSE,147,5.8,5.8,100,0.38,RA,FEW,0.38,WeatherDisplay:10.37,2013-04-10 23:34:00,
2013-04-10 19:39:00,56.7,56.7,29.65,South,172,3.5,3.5,100,0.39,RA,FEW,0.39,WeatherDisplay:10.37,2013-04-10 23:39:00,
2013-04-10 19:44:00,56.4,56.4,29.63,SSE,147,3.5,3.5,100,0.40,RA,FEW,0.40,WeatherDisplay:10.37,2013-04-10 23:44:00,
2013-04-10 19:49:00,56.3,56.3,29.62,SE,146,3.5,3.5,100,0.41,RA,FEW,0.41,WeatherDisplay:10.37,2013-04-10 23:49:00,
2013-04-10 19:54:00,56.2,56.2,29.61,SE,134,4.6,4.6,100,0.30,,FEW,0.41,WeatherDisplay:10.37,2013-04-10 23:54:00,
2013-04-10 19:59:00,56.1,56.1,29.62,ESE,118,2.3,2.3,100,0.14,RA,FEW,0.42,WeatherDisplay:10.37,2013-04-10 23:59:00,
2013-04-10 20:04:00,56.1,56.1,29.60,SE,143,1.2,0.0,100,0.13,,FEW,0.42,WeatherDisplay:10.37,2013-04-11 00:04:00,
2013-04-10 20:09:00,56.1,56.1,29.60,SE,143,0.0,0.0,100,0.10,CLR,FEW,0.42,WeatherDisplay:10.37,2013-04-11 00:09:00,
2013-04-10 20:14:00,56.2,56.2,29.60,SE,143,0.0,0.0,100,0.10,CLR,FEW,0.42,WeatherDisplay:10.37,2013-04-11 00:14:00,
2013-04-10 20:19:00,56.2,56.2,29.60,SE,143,0.0,0.0,100,0.08,CLR,FEW,0.42,WeatherDisplay:10.37,2013-04-11 00:19:00,
2013-04-10 20:24:00,56.3,56.3,29.60,South,170,4.6,4.6,100,0.06,CLR,FEW,0.42,WeatherDisplay:10.37,2013-04-11 00:24:00,
2013-04-10 20:29:00,56.2,56.2,29.61,WNW,301,1.2,1.2,100,0.05,CLR,FEW,0.42,WeatherDisplay:10.37,2013-04-11 00:29:00,
2013-04-10 20:34:00,56.2,56.2,29.62,WNW,301,1.2,1.2,100,0.04,CLR,FEW,0.42,WeatherDisplay:10.37,2013-04-11 00:34:00,
2013-04-10 20:39:00,56.2,56.2,29.61,WNW,301,3.5,3.5,100,0.03,CLR,FEW,0.42,WeatherDisplay:10.37,2013-04-11 00:39:00,
2013-04-10 20:44:00,56.2,56.2,29.61,WNW,301,0.0,0.0,100,0.02,CLR,FEW,0.42,WeatherDisplay:10.37,2013-04-11 00:44:00,
2013-04-10 20:49:00,56.2,56.2,29.61,WNW,301,3.5,3.5,100,0.01,CLR,FEW,0.42,WeatherDisplay:10.37,2013-04-11 00:49:00,
2013-04-10 20:54:00,56.3,56.3,29.62,WNW,301,2.3,2.3,100,0.01,CLR,FEW,0.42,WeatherDisplay:10.37,2013-04-11 00:54:00,
2013-04-10 20:59:00,56.3,56.3,29.63,WNW,301,3.5,3.5,100,0.00,CLR,FEW,0.42,WeatherDisplay:10.37,2013-04-11 00:59:00,
2013-04-10 21:04:00,56.5,56.5,29.64,WNW,301,0.0,0.0,100,0.00,CLR,FEW,0.42,WeatherDisplay:10.37,2013-04-11 01:04:00,
2013-04-10 21:09:00,56.4,56.4,29.61,WNW,301,1.2,1.2,100,0.00,CLR,FEW,0.42,WeatherDisplay:10.37,2013-04-11 01:09:00,
2013-04-10 21:14:00,56.7,56.7,29.63,WNW,300,1.2,1.2,100,0.00,CLR,FEW,0.42,WeatherDisplay:10.37,2013-04-11 01:14:00,
2013-04-10 21:19:00,56.6,56.6,29.62,South,181,3.5,3.5,100,0.00,CLR,FEW,0.42,WeatherDisplay:10.37,2013-04-11 01:19:00,
2013-04-10 21:24:00,56.8,56.8,29.63,South,181,3.5,3.5,100,0.00,CLR,FEW,0.42,WeatherDisplay:10.37,2013-04-11 01:24:00,
2013-04-10 21:29:00,56.6,56.6,29.62,SW,214,3.5,3.5,100,0.00,CLR,FEW,0.42,WeatherDisplay:10.37,2013-04-11 01:29:00,
2013-04-10 21:34:00,56.6,56.6,29.62,SW,224,3.5,3.5,100,0.00,CLR,FEW,0.42,WeatherDisplay:10.37,2013-04-11 01:34:00,
2013-04-10 21:39:00,56.6,56.6,29.62,SW,221,3.5,3.5,100,0.00,CLR,FEW,0.42,WeatherDisplay:10.37,2013-04-11 01:39:00,
2013-04-10 21:44:00,56.7,56.7,29.62,SW,228,3.5,3.5,100,0.00,CLR,FEW,0.42,WeatherDisplay:10.37,2013-04-11 01:44:00,
2013-04-10 21:49:00,56.7,56.7,29.63,WSW,239,3.5,3.5,100,0.00,CLR,FEW,0.42,WeatherDisplay:10.37,2013-04-11 01:49:00,
2013-04-10 21:54:00,56.7,56.7,29.63,WSW,242,1.2,1.2,100,0.00,CLR,FEW,0.42,WeatherDisplay:10.37,2013-04-11 01:54:00,
2013-04-10 21:59:00,56.7,56.7,29.64,West,262,3.5,3.5,100,0.00,CLR,FEW,0.42,WeatherDisplay:10.37,2013-04-11 01:59:00,
2013-04-10 22:04:00,56.7,56.7,29.66,NW,306,5.8,5.8,100,0.00,CLR,FEW,0.42,WeatherDisplay:10.37,2013-04-11 02:04:00,
2013-04-10 22:09:00,56.8,56.8,29.70,West,274,5.8,5.8,100,0.03,RA,FEW,0.46,WeatherDisplay:10.37,2013-04-11 02:09:00,
2013-04-10 22:14:00,56.8,56.8,29.68,WNW,300,4.6,4.6,100,0.11,RA,FEW,0.53,WeatherDisplay:10.37,2013-04-11 02:14:00,
2013-04-10 22:19:00,56.7,56.7,29.69,WNW,290,5.8,5.8,100,0.14,RA,FEW,0.56,WeatherDisplay:10.37,2013-04-11 02:19:00,
2013-04-10 22:24:00,56.7,56.7,29.68,WNW,282,2.3,2.3,100,0.16,RA,FEW,0.58,WeatherDisplay:10.37,2013-04-11 02:24:00,
2013-04-10 22:29:00,56.7,56.7,29.67,West,273,1.2,1.2,100,0.18,RA,FEW,0.60,WeatherDisplay:10.37,2013-04-11 02:29:00,
2013-04-10 22:34:00,56.7,56.7,29.66,SW,215,2.3,2.3,100,0.20,RA,FEW,0.62,WeatherDisplay:10.37,2013-04-11 02:34:00,
2013-04-10 22:39:00,56.6,56.6,29.65,SSW,192,2.3,2.3,100,0.20,RA,FEW,0.62,WeatherDisplay:10.37,2013-04-11 02:39:00,
2013-04-10 22:44:00,56.5,56.5,29.65,South,182,3.5,3.5,100,0.21,RA,FEW,0.63,WeatherDisplay:10.37,2013-04-11 02:44:00,
2013-04-10 22:49:00,56.5,56.5,29.66,SSW,198,4.0,4.0,100,0.21,RA,FEW,0.63,WeatherDisplay:10.37,2013-04-11 02:49:00,
2013-04-10 22:54:00,56.5,56.5,29.66,SSW,200,3.5,3.5,100,0.21,CLR,FEW,0.63,WeatherDisplay:10.37,2013-04-11 02:54:00,
2013-04-10 22:59:00,56.5,56.5,29.66,SSW,194,3.5,3.5,100,0.21,CLR,FEW,0.63,WeatherDisplay:10.37,2013-04-11 02:59:00,
2013-04-10 23:04:00,56.4,56.4,29.66,SSW,209,3.5,3.5,100,0.21,CLR,FEW,0.63,WeatherDisplay:10.37,2013-04-11 03:04:00,
2013-04-10 23:09:00,56.5,56.5,29.65,SSW,209,2.0,2.0,100,0.18,CLR,FEW,0.63,WeatherDisplay:10.37,2013-04-11 03:09:00,
2013-04-10 23:14:00,56.5,56.5,29.65,SSW,202,5.8,5.8,100,0.10,CLR,FEW,0.63,WeatherDisplay:10.37,2013-04-11 03:14:00,
2013-04-10 23:19:00,56.6,56.6,29.66,SSW,210,3.5,3.5,100,0.07,CLR,FEW,0.63,WeatherDisplay:10.37,2013-04-11 03:19:00,
2013-04-10 23:24:00,56.6,56.6,29.65,South,188,2.3,2.3,100,0.05,CLR,FEW,0.63,WeatherDisplay:10.37,2013-04-11 03:24:00,
2013-04-10 23:29:00,56.5,56.5,29.64,South,189,3.5,3.5,100,0.03,CLR,FEW,0.63,WeatherDisplay:10.37,2013-04-11 03:29:00,
2013-04-10 23:34:00,56.5,56.5,29.63,South,178,2.3,2.3,100,0.01,CLR,FEW,0.63,WeatherDisplay:10.37,2013-04-11 03:34:00,
2013-04-10 23:39:00,56.4,56.4,29.64,South,178,3.5,3.5,100,0.01,CLR,FEW,0.63,WeatherDisplay:10.37,2013-04-11 03:39:00,
2013-04-10 23:44:00,56.4,56.4,29.64,South,190,4.6,4.6,100,0.01,RA,FEW,0.64,WeatherDisplay:10.37,2013-04-11 03:44:00,
2013-04-10 23:49:00,56.4,56.4,29.63,SSW,193,5.8,5.8,100,0.01,,FEW,0.64,WeatherDisplay:10.37,2013-04-11 03:49:00,
2013-04-10 23:54:00,56.4,56.4,29.62,SSW,199,5.8,5.8,100,0.01,CLR,FEW,0.64,WeatherDisplay:10.37,2013-04-11 03:54:00,
2013-04-10 23:59:00,56.3,56.3,29.62,SSW,211,6.9,6.9,100,0.01,CLR,FEW,0.64,WeatherDisplay:10.37,2013-04-11 03:59:00,